createdAt,value
2023-01-17T00:01:24.172Z,11.23
2023-01-17T00:04:15.342Z,11.82
2023-01-17T00:07:06.095Z,6.13
2023-01-17T00:09:54.021Z,6.18
2023-01-17T00:12:28.158Z,11.07
2023-01-17T00:15:01.207Z,7.85
2023-01-17T00:17:34.097Z,8.13
2023-01-17T00:20:26.016Z,7.32
2023-01-17T00:23:17.038Z,7.95
2023-01-17T00:26:05.640Z,16.60
2023-01-17T00:28:39.268Z,9.55
2023-01-17T00:31:12.731Z,8.52
2023-01-17T00:33:45.222Z,4.18
2023-01-17T00:36:18.060Z,6.90
2023-01-17T00:38:50.498Z,9.57
2023-01-17T00:41:23.453Z,6.13
2023-01-17T00:44:14.507Z,14.13
2023-01-17T00:47:05.774Z,19.65
2023-01-17T00:49:57.066Z,14.07
2023-01-17T00:52:48.530Z,16.23
2023-01-17T00:55:39.664Z,7.63
2023-01-17T00:58:30.820Z,16.33
2023-01-17T01:01:25.313Z,11.98
2023-01-17T01:04:16.935Z,12.27
2023-01-17T01:07:08.140Z,6.95
2023-01-17T01:09:59.502Z,8.95
2023-01-17T01:12:50.456Z,14.10
2023-01-17T01:15:41.629Z,22.15
2023-01-17T01:18:32.314Z,14.35
2023-01-17T01:21:23.586Z,11.23
2023-01-17T01:24:14.742Z,9.18
2023-01-17T01:27:05.898Z,26.40
2023-01-17T01:29:56.892Z,12.18
2023-01-17T01:32:48.149Z,30.85
2023-01-17T01:35:22.226Z,8.00
2023-01-17T01:37:55.186Z,7.90
2023-01-17T01:40:27.760Z,9.10
2023-01-17T01:43:06.031Z,14.35
2023-01-17T01:45:38.675Z,13.70
2023-01-17T01:48:43.774Z,5.80
2023-01-17T01:51:19.475Z,16.50
2023-01-17T01:53:54.899Z,4.60
2023-01-17T01:56:28.852Z,4.82
2023-01-17T01:59:03.304Z,3.97
2023-01-17T02:01:36.088Z,6.82
2023-01-17T02:04:10.329Z,4.25
2023-01-17T02:06:45.509Z,8.15
2023-01-17T02:09:18.879Z,5.70
2023-01-17T02:11:51.462Z,4.82
2023-01-17T02:14:24.702Z,4.90
2023-01-17T02:17:06.268Z,3.17
2023-01-17T02:19:39.747Z,3.63
2023-01-17T02:22:12.249Z,4.97
2023-01-17T02:25:08.738Z,3.30
2023-01-17T02:27:47.304Z,4.88
2023-01-17T02:30:32.949Z,3.80
2023-01-17T02:33:17.777Z,3.80
2023-01-17T02:35:56.706Z,3.67
2023-01-17T02:38:31.607Z,5.65
2023-01-17T02:41:08.023Z,3.70
2023-01-17T02:43:40.979Z,4.40
2023-01-17T02:46:14.050Z,2.58
2023-01-17T02:48:46.821Z,3.33
2023-01-17T02:51:19.930Z,2.67
2023-01-17T02:54:03.897Z,5.97
2023-01-17T02:56:36.893Z,2.63
2023-01-17T02:59:14.943Z,2.60
2023-01-17T03:02:14.256Z,3.85
2023-01-17T03:04:51.230Z,4.25
2023-01-17T03:07:25.584Z,2.15
2023-01-17T03:10:03.338Z,4.07
2023-01-17T03:12:37.763Z,3.17
2023-01-17T03:15:20.702Z,2.08
2023-01-17T03:17:54.798Z,2.08
2023-01-17T03:20:27.661Z,3.63
2023-01-17T03:23:00.622Z,3.05
2023-01-17T03:25:33.220Z,2.28
2023-01-17T03:28:06.225Z,2.50
2023-01-17T03:30:38.995Z,3.50
2023-01-17T03:33:11.921Z,4.30
2023-01-17T03:35:47.652Z,3.70
2023-01-17T03:38:21.258Z,3.22
2023-01-17T03:40:53.906Z,2.75
2023-01-17T03:43:26.795Z,2.17
2023-01-17T03:46:07.564Z,1.80
2023-01-17T03:48:41.413Z,2.40
2023-01-17T03:51:15.001Z,5.72
2023-01-17T03:53:48.223Z,7.80
2023-01-17T03:56:21.068Z,3.90
2023-01-17T03:58:54.092Z,2.35
2023-01-17T04:01:26.916Z,2.58
2023-01-17T04:03:59.861Z,2.42
2023-01-17T04:06:32.451Z,1.85
2023-01-17T04:09:05.558Z,2.53
2023-01-17T04:11:38.136Z,3.08
2023-01-17T04:14:11.081Z,2.40
2023-01-17T04:16:43.818Z,5.35
2023-01-17T04:19:17.901Z,2.35
2023-01-17T04:21:50.458Z,3.78
2023-01-17T04:24:23.323Z,3.58
2023-01-17T04:26:55.874Z,2.55
2023-01-17T04:29:28.823Z,3.38
2023-01-17T04:32:01.541Z,3.05
2023-01-17T04:34:34.492Z,4.18
2023-01-17T04:37:07.160Z,3.65
2023-01-17T04:39:40.224Z,6.55
2023-01-17T04:42:12.735Z,2.45
2023-01-17T04:44:45.712Z,3.13
2023-01-17T04:47:18.251Z,3.47
2023-01-17T04:49:52.067Z,2.83
2023-01-17T04:52:25.708Z,2.38
2023-01-17T04:54:58.641Z,12.05
2023-01-17T04:57:31.477Z,4.47
2023-01-17T05:00:08.957Z,3.38
2023-01-17T05:02:41.553Z,5.65
2023-01-17T05:05:14.771Z,6.57
2023-01-17T05:07:57.195Z,2.35
2023-01-17T05:10:30.239Z,5.82
2023-01-17T05:13:03.474Z,4.75
2023-01-17T05:15:37.099Z,3.80
2023-01-17T05:18:19.140Z,3.15
2023-01-17T05:20:52.121Z,4.53
2023-01-17T05:23:25.858Z,2.80
2023-01-17T05:25:58.951Z,5.63
2023-01-17T05:28:31.555Z,1.52
2023-01-17T05:31:04.717Z,2.70
2023-01-17T05:33:37.447Z,4.75
2023-01-17T05:36:10.391Z,2.83
2023-01-17T05:38:43.368Z,6.35
2023-01-17T05:41:16.307Z,3.17
2023-01-17T05:43:48.830Z,3.72
2023-01-17T05:46:21.816Z,2.83
2023-01-17T05:48:54.364Z,3.78
2023-01-17T05:51:27.257Z,3.42
2023-01-17T05:53:59.737Z,3.60
2023-01-17T05:56:32.613Z,3.97
2023-01-17T05:59:05.211Z,3.75
2023-01-17T06:01:38.151Z,2.58
2023-01-17T06:04:11.351Z,3.45
2023-01-17T06:06:44.291Z,3.22
2023-01-17T06:09:16.886Z,4.60
2023-01-17T06:11:49.816Z,4.82
2023-01-17T06:14:22.457Z,3.72
2023-01-17T06:16:55.946Z,6.10
2023-01-17T06:19:28.408Z,4.95
2023-01-17T06:22:01.348Z,3.30
2023-01-17T06:24:34.319Z,2.28
2023-01-17T06:27:08.961Z,3.10
2023-01-17T06:29:41.645Z,4.65
2023-01-17T06:32:14.567Z,3.63
2023-01-17T06:34:47.075Z,2.92
2023-01-17T06:37:20.013Z,4.18
2023-01-17T06:39:52.506Z,4.72
2023-01-17T06:42:25.481Z,6.88
2023-01-17T06:44:58.130Z,5.28
2023-01-17T06:47:31.040Z,3.35
2023-01-17T06:50:03.775Z,10.60
2023-01-17T06:52:36.693Z,7.53
2023-01-17T06:55:10.544Z,7.28
2023-01-17T06:57:43.434Z,6.70
2023-01-17T07:00:16.303Z,6.22
2023-01-17T07:02:50.019Z,4.07
2023-01-17T07:05:22.747Z,4.13
2023-01-17T07:07:56.138Z,2.30
2023-01-17T07:10:28.848Z,2.58
2023-01-17T07:13:01.720Z,4.95
2023-01-17T07:15:34.341Z,4.22
2023-01-17T07:18:08.562Z,3.47
2023-01-17T07:20:44.136Z,4.47
2023-01-17T07:23:17.919Z,6.25
2023-01-17T07:25:58.278Z,3.22
2023-01-17T07:28:31.276Z,4.18
2023-01-17T07:31:08.326Z,3.03
2023-01-17T07:33:41.270Z,2.65
2023-01-17T07:36:13.834Z,4.03
2023-01-17T07:38:47.342Z,5.32
2023-01-17T07:41:20.169Z,3.67
2023-01-17T07:43:54.327Z,3.88
2023-01-17T07:46:28.019Z,4.53
2023-01-17T07:49:01.191Z,7.32
2023-01-17T07:51:33.823Z,8.45
2023-01-17T07:54:06.732Z,4.47
2023-01-17T07:56:40.389Z,6.70
2023-01-17T07:59:13.822Z,4.40
2023-01-17T08:01:46.733Z,4.82
2023-01-17T08:04:19.634Z,4.18
2023-01-17T08:06:52.398Z,6.25
2023-01-17T08:09:25.354Z,4.70
2023-01-17T08:11:57.889Z,4.97
2023-01-17T08:14:30.731Z,5.03
2023-01-17T08:17:14.590Z,14.02
2023-01-17T08:19:50.381Z,19.25
2023-01-17T08:22:23.197Z,36.47
2023-01-17T08:24:56.158Z,69.40
2023-01-17T08:27:28.987Z,66.35
2023-01-17T08:30:02.008Z,65.63
2023-01-17T08:32:34.932Z,43.92
2023-01-17T08:35:09.195Z,17.67
2023-01-17T08:37:42.161Z,93.15
2023-01-17T08:40:17.250Z,35.88
2023-01-17T08:42:56.668Z,69.85
2023-01-17T08:45:29.716Z,57.17
2023-01-17T08:48:02.380Z,33.13
2023-01-17T08:50:37.680Z,30.00
2023-01-17T08:53:10.201Z,20.80
2023-01-17T08:55:43.162Z,12.45
2023-01-17T08:58:15.734Z,6.32
2023-01-17T09:00:48.783Z,17.50
2023-01-17T09:03:22.668Z,17.23
2023-01-17T09:06:09.615Z,13.70
2023-01-17T09:08:47.351Z,5.10
2023-01-17T09:11:20.288Z,7.50
2023-01-17T09:13:52.773Z,8.23
2023-01-17T09:16:26.322Z,8.48
2023-01-17T09:18:59.108Z,5.75
2023-01-17T09:21:32.667Z,3.70
2023-01-17T09:24:05.216Z,6.93
2023-01-17T09:26:38.280Z,3.67
2023-01-17T09:29:10.850Z,3.67
2023-01-17T09:31:44.575Z,4.20
2023-01-17T09:34:18.856Z,6.13
2023-01-17T09:36:51.756Z,8.32
2023-01-17T09:39:24.451Z,11.55
2023-01-17T09:42:00.177Z,6.40
2023-01-17T09:44:39.413Z,7.05
2023-01-17T09:47:26.347Z,6.43
2023-01-17T09:50:13.022Z,7.07
2023-01-17T09:52:46.228Z,3.80
2023-01-17T09:55:19.353Z,10.05
2023-01-17T09:57:58.065Z,3.53
2023-01-17T10:00:58.322Z,12.45
2023-01-17T10:03:36.325Z,3.78
2023-01-17T10:06:27.505Z,6.80
2023-01-17T10:09:04.270Z,9.95
2023-01-17T10:11:48.826Z,7.65
2023-01-17T10:14:21.669Z,6.57
2023-01-17T10:17:13.996Z,7.57
2023-01-17T10:19:46.945Z,13.75
2023-01-17T10:22:42.724Z,29.88
2023-01-17T10:25:16.115Z,8.40
2023-01-17T10:27:52.735Z,9.95
2023-01-17T10:30:35.109Z,3.28
2023-01-17T10:33:29.047Z,9.15
2023-01-17T10:36:15.671Z,3.67
2023-01-17T10:38:49.957Z,10.50
2023-01-17T10:41:23.190Z,4.32
2023-01-17T10:44:15.410Z,7.57
2023-01-17T10:46:53.055Z,4.60
2023-01-17T10:49:26.858Z,2.25
2023-01-17T10:52:18.745Z,10.32
2023-01-17T10:54:58.522Z,3.40
2023-01-17T10:57:37.121Z,3.30
2023-01-17T11:00:28.317Z,5.80
2023-01-17T11:03:01.483Z,4.03
2023-01-17T11:05:34.223Z,1.85
2023-01-17T11:08:11.482Z,1.60
2023-01-17T11:10:45.828Z,2.40
2023-01-17T11:13:36.034Z,1.30
2023-01-17T11:16:17.284Z,0.95
2023-01-17T11:19:05.173Z,2.22
2023-01-17T11:21:39.901Z,2.72
2023-01-17T11:24:17.986Z,7.57
2023-01-17T11:26:50.519Z,4.40
2023-01-17T11:29:31.617Z,2.00
2023-01-17T11:32:36.716Z,1.63
2023-01-17T11:35:21.831Z,5.53
2023-01-17T11:37:59.595Z,3.15
2023-01-17T11:40:40.704Z,2.83
2023-01-17T11:43:14.628Z,2.88
2023-01-17T11:46:00.061Z,4.57
2023-01-17T11:48:39.214Z,3.08
2023-01-17T11:51:20.650Z,1.67
2023-01-17T11:53:54.199Z,3.40
2023-01-17T11:56:28.307Z,5.70
2023-01-17T11:59:19.095Z,1.55
2023-01-17T12:02:02.104Z,2.07
2023-01-17T12:04:36.450Z,1.23
2023-01-17T12:07:09.572Z,1.40
2023-01-17T12:09:54.341Z,3.38
2023-01-17T12:13:04.643Z,5.78
2023-01-17T12:15:46.369Z,4.95
2023-01-17T12:18:27.714Z,3.95
2023-01-17T12:21:00.601Z,5.07
2023-01-17T12:23:45.761Z,1.73
2023-01-17T12:26:36.667Z,1.65
2023-01-17T12:29:09.816Z,4.00
2023-01-17T12:31:50.135Z,3.00
2023-01-17T12:34:42.097Z,2.88
2023-01-17T12:37:26.906Z,2.45
2023-01-17T12:40:05.436Z,3.17
2023-01-17T12:42:41.048Z,5.75
2023-01-17T12:45:16.363Z,8.00
2023-01-17T12:47:50.689Z,4.05
2023-01-17T12:50:34.595Z,2.60
2023-01-17T12:53:10.143Z,1.92
2023-01-17T12:55:50.237Z,1.70
2023-01-17T12:58:24.925Z,1.70
2023-01-17T13:01:03.651Z,3.95
2023-01-17T13:03:36.696Z,3.38
2023-01-17T13:06:16.326Z,3.30
2023-01-17T13:08:53.552Z,2.55
2023-01-17T13:11:48.057Z,2.60
2023-01-17T13:14:20.638Z,3.92
2023-01-17T13:17:12.529Z,1.60
2023-01-17T13:19:50.607Z,9.48
2023-01-17T13:22:27.323Z,3.13
2023-01-17T13:25:05.749Z,2.53
2023-01-17T13:27:38.719Z,1.88
2023-01-17T13:30:32.167Z,1.48
2023-01-17T13:33:23.476Z,4.57
2023-01-17T13:35:59.934Z,5.03
2023-01-17T13:38:57.813Z,15.48
2023-01-17T13:41:47.791Z,3.83
2023-01-17T13:44:23.306Z,7.10
2023-01-17T13:47:04.475Z,4.50
2023-01-17T13:50:03.608Z,3.00
2023-01-17T13:52:36.283Z,4.70
2023-01-17T13:55:09.435Z,7.15
2023-01-17T13:57:46.569Z,13.65
2023-01-17T14:00:23.462Z,46.30
2023-01-17T14:02:56.373Z,18.27
2023-01-17T14:05:32.167Z,29.40
2023-01-17T14:08:06.318Z,7.57
2023-01-17T14:10:41.225Z,5.82
2023-01-17T14:13:32.904Z,7.50
2023-01-17T14:16:09.517Z,8.95
2023-01-17T14:18:44.271Z,18.10
2023-01-17T14:21:22.922Z,7.57
2023-01-17T14:24:00.497Z,11.27
2023-01-17T14:26:41.486Z,9.93
2023-01-17T14:29:33.421Z,13.13
2023-01-17T14:32:09.222Z,8.35
2023-01-17T14:34:43.823Z,9.00
2023-01-17T14:37:38.038Z,2.15
2023-01-17T14:40:19.556Z,8.95
2023-01-17T14:42:57.282Z,4.82
2023-01-17T14:45:31.478Z,3.45
2023-01-17T14:48:14.903Z,21.48
2023-01-17T14:50:48.695Z,3.13
2023-01-17T14:53:22.740Z,6.28
2023-01-17T14:55:56.956Z,7.72
2023-01-17T14:58:33.705Z,3.92
2023-01-17T15:01:12.924Z,4.80
2023-01-17T15:03:58.578Z,7.32
2023-01-17T15:06:32.267Z,5.30
2023-01-17T15:09:12.845Z,5.03
2023-01-17T15:11:46.530Z,6.93
2023-01-17T15:14:30.408Z,4.57
2023-01-17T15:17:29.125Z,6.80
2023-01-17T15:20:03.744Z,9.55
2023-01-17T15:22:36.335Z,7.20
2023-01-17T15:25:12.202Z,9.55
2023-01-17T15:27:45.101Z,12.85
2023-01-17T15:30:18.462Z,9.93
2023-01-17T15:32:51.758Z,44.63
2023-01-17T15:35:25.466Z,71.90
2023-01-17T15:37:58.661Z,89.70
2023-01-17T15:40:33.525Z,31.40
2023-01-17T15:43:06.887Z,53.08
2023-01-17T15:45:39.988Z,31.05
2023-01-17T15:48:45.383Z,17.92
2023-01-17T15:51:39.176Z,11.45
2023-01-17T15:54:29.724Z,7.47
2023-01-17T15:57:04.292Z,8.57
2023-01-17T15:59:45.820Z,5.93
2023-01-17T16:04:51.347Z,28.50
2023-01-17T16:07:30.822Z,42.45
2023-01-17T16:10:29.379Z,15.82
2023-01-17T16:13:02.555Z,21.00
2023-01-17T16:15:36.477Z,17.95
2023-01-17T16:18:17.258Z,14.15
2023-01-17T16:20:59.484Z,13.43
2023-01-17T16:23:32.419Z,19.90
2023-01-17T16:26:05.668Z,18.63
2023-01-17T16:28:41.722Z,20.77
2023-01-17T16:31:14.453Z,29.75
2023-01-17T16:33:49.093Z,29.13
2023-01-17T16:36:23.193Z,62.60
2023-01-17T16:38:56.118Z,58.90
2023-01-17T16:41:28.937Z,102.07
2023-01-17T16:44:02.753Z,49.15
2023-01-17T16:46:38.845Z,26.15
2023-01-17T16:49:11.749Z,17.83
2023-01-17T16:51:46.345Z,14.95
2023-01-17T16:54:19.277Z,13.70
2023-01-17T16:56:52.380Z,14.40
2023-01-17T16:59:26.075Z,15.93
2023-01-17T17:02:01.658Z,13.00
2023-01-17T17:04:34.606Z,20.17
2023-01-17T17:07:07.071Z,18.00
2023-01-17T17:09:40.198Z,16.48
2023-01-17T17:12:12.689Z,18.70
2023-01-17T17:14:45.629Z,11.63
2023-01-17T17:17:18.302Z,9.07
2023-01-17T17:19:51.247Z,14.02
2023-01-17T17:22:23.728Z,12.07
2023-01-17T17:24:56.644Z,17.23
2023-01-17T17:27:29.173Z,18.95
2023-01-17T17:30:02.244Z,12.93
2023-01-17T17:32:34.881Z,24.98
2023-01-17T17:35:08.019Z,26.40
2023-01-17T17:37:40.681Z,23.92
2023-01-17T17:40:13.712Z,18.40
2023-01-17T17:42:46.260Z,19.00
2023-01-17T17:45:19.466Z,9.43
2023-01-17T17:47:52.182Z,13.00
2023-01-17T17:50:25.322Z,9.55
2023-01-17T17:52:58.009Z,12.02
2023-01-17T17:55:30.969Z,10.35
2023-01-17T17:58:03.538Z,12.30
2023-01-17T18:00:36.517Z,15.73
2023-01-17T18:03:09.068Z,18.58
2023-01-17T18:05:42.900Z,15.43
2023-01-17T18:08:15.513Z,20.67
2023-01-17T18:10:48.459Z,17.42
2023-01-17T18:13:21.036Z,24.73
2023-01-17T18:16:08.003Z,29.13
2023-01-17T18:18:42.055Z,20.15
2023-01-17T18:21:16.223Z,38.42
2023-01-17T18:23:48.738Z,57.60
2023-01-17T18:26:23.304Z,23.20
2023-01-17T18:28:56.459Z,32.78
2023-01-17T18:31:30.259Z,16.05
2023-01-17T18:34:07.384Z,29.65
2023-01-17T18:36:40.867Z,19.65
2023-01-17T18:39:14.960Z,25.40
2023-01-17T18:41:48.218Z,50.88
2023-01-17T18:44:22.151Z,59.53
2023-01-17T18:46:56.249Z,66.20
2023-01-17T18:49:29.462Z,70.05
2023-01-17T18:52:02.671Z,66.53
2023-01-17T18:54:35.241Z,78.65
2023-01-17T18:57:08.183Z,56.45
2023-01-17T18:59:40.855Z,81.18
2023-01-17T19:02:14.865Z,94.95
2023-01-17T19:04:47.558Z,66.88
2023-01-17T19:07:21.637Z,63.67
2023-01-17T19:09:54.288Z,65.97
2023-01-17T19:12:27.263Z,52.63
2023-01-17T19:14:59.792Z,37.13
2023-01-17T19:17:32.691Z,44.58
2023-01-17T19:20:07.366Z,37.25
2023-01-17T19:22:41.595Z,35.33
2023-01-17T19:25:14.306Z,41.05
2023-01-17T19:27:47.580Z,48.75
2023-01-17T19:30:20.935Z,50.08
2023-01-17T19:32:53.921Z,56.60
2023-01-17T19:35:26.464Z,63.88
2023-01-17T19:37:59.311Z,52.70
2023-01-17T19:40:32.054Z,45.65
2023-01-17T19:43:05.718Z,42.85
2023-01-17T19:45:38.328Z,54.92
2023-01-17T19:48:13.093Z,51.13
2023-01-17T19:50:46.141Z,45.22
2023-01-17T19:53:19.256Z,48.33
2023-01-17T19:55:51.849Z,46.28
2023-01-17T19:58:24.853Z,37.38
2023-01-17T20:01:05.090Z,46.13
2023-01-17T20:03:38.791Z,40.17
2023-01-17T20:06:13.278Z,31.85
2023-01-17T20:08:46.527Z,43.03
2023-01-17T20:11:20.642Z,45.65
2023-01-17T20:13:56.129Z,49.42
2023-01-17T20:16:30.014Z,40.92
2023-01-17T20:19:03.832Z,45.33
2023-01-17T20:21:36.353Z,38.10
2023-01-17T20:24:10.806Z,31.15
2023-01-17T20:26:44.421Z,38.08
2023-01-17T20:29:17.961Z,43.83
2023-01-17T20:31:52.759Z,40.00
2023-01-17T20:34:26.120Z,35.97
2023-01-17T20:36:59.745Z,45.17
2023-01-17T20:39:33.126Z,36.63
2023-01-17T20:42:05.705Z,23.98
2023-01-17T20:44:38.673Z,31.15
2023-01-17T20:47:11.284Z,41.20
2023-01-17T20:49:44.353Z,30.88
2023-01-17T20:52:16.930Z,46.67
2023-01-17T20:54:50.549Z,45.42
2023-01-17T20:57:23.161Z,41.58
2023-01-17T20:59:56.263Z,36.20
2023-01-17T21:02:30.445Z,33.20
2023-01-17T21:05:04.087Z,42.72
2023-01-17T21:07:37.700Z,45.35
2023-01-17T21:10:11.507Z,34.40
2023-01-17T21:12:44.920Z,25.55
2023-01-17T21:15:17.992Z,25.13
2023-01-17T21:17:50.559Z,32.78
2023-01-17T21:20:23.490Z,31.98
2023-01-17T21:22:56.104Z,31.88
2023-01-17T21:25:29.061Z,28.95
2023-01-17T21:28:01.882Z,33.75
2023-01-17T21:30:34.979Z,48.15
2023-01-17T21:33:07.568Z,35.33
2023-01-17T21:35:40.427Z,49.15
2023-01-17T21:38:14.229Z,37.63
2023-01-17T21:40:47.406Z,45.78
2023-01-17T21:43:19.939Z,40.28
2023-01-17T21:45:53.698Z,34.97
2023-01-17T21:48:26.225Z,40.65
2023-01-17T21:51:08.982Z,32.80
2023-01-17T21:53:41.707Z,35.00
2023-01-17T21:56:33.585Z,47.60
2023-01-17T21:59:06.302Z,54.28
2023-01-17T22:01:39.708Z,45.17
2023-01-17T22:04:13.584Z,51.97
2023-01-17T22:06:46.987Z,42.45
2023-01-17T22:09:19.573Z,46.20
2023-01-17T22:11:52.501Z,42.08
2023-01-17T22:14:25.042Z,56.13
2023-01-17T22:16:58.068Z,45.03
2023-01-17T22:19:30.693Z,44.33
2023-01-17T22:22:04.266Z,50.90
2023-01-17T22:24:36.799Z,47.22
2023-01-17T22:27:10.285Z,48.83
2023-01-17T22:29:42.862Z,54.42
2023-01-17T22:32:16.013Z,63.30
2023-01-17T22:34:48.788Z,48.53
2023-01-17T22:37:21.627Z,52.17
2023-01-17T22:39:54.187Z,52.65
2023-01-17T22:42:27.014Z,53.28
2023-01-17T22:44:59.482Z,51.65
2023-01-17T22:47:33.401Z,55.20
2023-01-17T22:50:06.989Z,57.67
2023-01-17T22:52:39.904Z,50.70
2023-01-17T22:55:13.357Z,49.38
2023-01-17T22:57:47.062Z,51.13
2023-01-17T23:00:19.848Z,45.88
2023-01-17T23:02:53.643Z,44.00
2023-01-17T23:05:26.419Z,42.88
2023-01-17T23:08:02.109Z,46.75
2023-01-17T23:10:53.497Z,52.97
2023-01-17T23:13:26.436Z,40.22
2023-01-17T23:16:22.752Z,49.03
2023-01-17T23:19:13.911Z,46.17
2023-01-17T23:22:05.038Z,48.65
2023-01-17T23:24:44.212Z,48.72
2023-01-17T23:27:37.437Z,43.63
2023-01-17T23:30:12.307Z,56.88
2023-01-17T23:32:49.243Z,52.17
2023-01-17T23:35:23.472Z,44.05
2023-01-17T23:38:14.876Z,57.95
2023-01-17T23:41:06.390Z,49.00
2023-01-17T23:43:38.959Z,56.72
2023-01-17T23:46:12.436Z,47.60
2023-01-17T23:48:45.076Z,51.40
2023-01-17T23:51:18.348Z,48.92
2023-01-17T23:53:55.468Z,57.22
2023-01-17T23:56:28.399Z,60.78
2023-01-17T23:59:01.511Z,50.13
